Time;durP1;ratioP1;P1;durP2;ratioP2;P2;SDS_P1;SDS_P2;PMS_P1;PMS_P2;Temp;Humidity;BMP_temperature;BMP_pressure;BME280_temperature;BME280_humidity;BME280_pressure;Samples;Min_cycle;Max_cycle;Signal;HPM_P1;HPM_P2
2024/02/04 00:01:55;;;;;;;0.55;0.52;;;;;;;18.37;96.12;100626.19;7392378;19;20015;-80
2024/02/04 00:04:23;;;;;;;2.90;0.73;;;;;;;18.39;96.15;100639.75;7393096;19;20019;-80
2024/02/04 00:06:49;;;;;;;0.43;0.43;;;;;;;18.70;94.32;100614.94;7390677;19;20018;-80
2024/02/04 00:09:15;;;;;;;4.30;0.93;;;;;;;21.79;88.45;100617.09;7390379;19;20018;-80
2024/02/04 00:11:41;;;;;;;1.52;0.57;;;;;;;33.28;40.50;100598.16;7387625;19;20018;-80
2024/02/04 00:14:08;;;;;;;0.73;0.25;;;;;;;30.70;40.30;100607.78;7390132;19;20081;-80
2024/02/04 00:16:34;;;;;;;1.08;0.88;;;;;;;22.12;59.84;100613.09;7388906;19;20015;-80
2024/02/04 00:19:01;;;;;;;0.80;0.45;;;;;;;19.49;83.92;100611.47;7386710;19;20369;-80
2024/02/04 00:21:27;;;;;;;0.60;0.30;;;;;;;18.77;89.75;100603.16;7389521;19;20023;-80
2024/02/04 00:23:53;;;;;;;1.13;0.60;;;;;;;18.47;92.28;100601.34;7389566;19;20023;-79
2024/02/04 00:26:19;;;;;;;6.10;0.95;;;;;;;18.33;93.63;100605.16;7390361;19;20502;-79
2024/02/04 00:28:45;;;;;;;1.55;0.80;;;;;;;18.23;94.18;100590.53;7389259;19;20029;-79
2024/02/04 00:31:11;;;;;;;4.30;0.63;;;;;;;18.14;95.16;100574.63;7387767;19;20464;-80
2024/02/04 00:33:37;;;;;;;2.20;0.65;;;;;;;18.24;94.89;100560.28;7387511;19;20067;-80
2024/02/04 00:36:04;;;;;;;0.65;0.65;;;;;;;18.45;94.33;100567.25;7388170;19;20011;-80
2024/02/04 00:38:30;;;;;;;0.77;0.77;;;;;;;18.61;93.23;100566.47;7389471;19;20024;-79
2024/02/04 00:40:56;;;;;;;1.58;0.75;;;;;;;18.28;94.93;100560.81;7387078;19;20022;-79
2024/02/04 00:43:22;;;;;;;0.75;0.47;;;;;;;18.24;95.21;100557.44;7389205;19;20022;-80
2024/02/04 00:45:49;;;;;;;0.10;0.10;;;;;;;18.26;95.42;100552.09;7387390;19;20018;-79
2024/02/04 00:48:15;;;;;;;0.10;0.10;;;;;;;18.24;95.56;100546.16;7389889;19;20094;-79
2024/02/04 00:50:42;;;;;;;3.15;0.32;;;;;;;18.14;95.66;100540.03;7388385;19;20018;-79
2024/02/04 00:53:08;;;;;;;11.18;0.45;;;;;;;18.16;96.66;100560.78;7388455;19;20018;-79
2024/02/04 00:55:34;;;;;;;1.45;0.17;;;;;;;18.23;96.70;100551.06;7387392;19;20018;-79
2024/02/04 00:58:02;;;;;;;0.73;0.70;;;;;;;18.22;96.46;100548.72;7388699;19;20014;-80
2024/02/04 01:00:28;;;;;;;30.13;1.75;;;;;;;18.29;96.32;100548.22;7388074;19;20033;-80
2024/02/04 01:02:54;;;;;;;0.10;0.10;;;;;;;18.33;96.49;100549.53;7389139;19;20016;-80
2024/02/04 01:05:20;;;;;;;0.70;0.20;;;;;;;18.31;96.38;100548.50;7389513;19;20037;-79
2024/02/04 01:07:46;;;;;;;0.10;0.10;;;;;;;18.33;96.54;100557.19;7389238;19;20378;-80
2024/02/04 01:10:12;;;;;;;0.20;0.10;;;;;;;18.38;95.97;100547.97;7388396;19;20006;-80
2024/02/04 01:12:38;;;;;;;0.57;0.50;;;;;;;18.33;96.59;100541.06;7386742;19;20042;-79
2024/02/04 01:15:05;;;;;;;0.50;0.50;;;;;;;18.30;97.04;100546.97;7387770;19;20018;-79
2024/02/04 01:17:33;;;;;;;0.20;0.20;;;;;;;18.29;97.02;100548.22;7384513;19;20051;-79
2024/02/04 01:19:59;;;;;;;4.75;0.50;;;;;;;18.32;96.41;100550.78;7386259;19;20025;-79
2024/02/04 01:22:27;;;;;;;0.22;0.13;;;;;;;18.34;96.39;100550.28;7390983;19;20011;-79
2024/02/04 01:24:53;;;;;;;0.13;0.10;;;;;;;18.35;96.57;100552.59;7387696;19;20040;-79
2024/02/04 01:27:19;;;;;;;0.50;0.40;;;;;;;18.34;96.81;100570.81;7387463;19;20026;-79
2024/02/04 01:29:45;;;;;;;0.10;0.05;;;;;;;18.41;96.59;100559.00;7386872;19;20019;-79
2024/02/04 01:32:12;;;;;;;0.30;0.10;;;;;;;18.39;96.17;100555.16;7387971;19;20371;-79
2024/02/04 01:34:38;;;;;;;0.22;0.20;;;;;;;18.32;96.18;100567.72;7394709;19;20018;-79
2024/02/04 01:37:04;;;;;;;0.20;0.13;;;;;;;18.32;96.75;100561.31;7394456;19;20412;-79
2024/02/04 01:39:30;;;;;;;0.20;0.20;;;;;;;18.39;96.52;100552.31;7391741;19;20015;-79
2024/02/04 01:41:56;;;;;;;5.38;0.50;;;;;;;18.36;96.68;100550.56;7395298;19;20014;-79
2024/02/04 01:44:23;;;;;;;0.47;0.47;;;;;;;18.38;96.24;100553.63;7396472;19;20523;-79
2024/02/04 01:46:49;;;;;;;0.15;0.10;;;;;;;18.39;96.22;100546.69;7396663;19;20127;-79
2024/02/04 01:49:15;;;;;;;0.68;0.47;;;;;;;18.38;96.52;100542.34;7395212;19;20014;-79
2024/02/04 01:51:42;;;;;;;0.20;0.20;;;;;;;18.41;96.62;100541.34;7395467;19;20120;-79
2024/02/04 01:54:08;;;;;;;0.10;0.10;;;;;;;18.52;96.46;100539.28;7391050;19;20018;-79
2024/02/04 01:56:35;;;;;;;1.23;0.88;;;;;;;18.47;95.61;100551.34;7392755;19;20018;-79
2024/02/04 01:59:02;;;;;;;0.10;0.10;;;;;;;18.48;95.66;100538.00;7392242;19;20329;-79
2024/02/04 02:01:28;;;;;;;2.83;0.30;;;;;;;18.48;95.31;100529.53;7393547;19;20472;-79
2024/02/04 02:03:54;;;;;;;0.30;0.25;;;;;;;18.55;94.51;100531.84;7394724;19;20086;-79
2024/02/04 02:06:21;;;;;;;0.10;0.05;;;;;;;18.49;95.11;100526.22;7392937;19;20010;-80
2024/02/04 02:08:49;;;;;;;0.75;0.38;;;;;;;18.52;94.90;100542.09;7394104;19;20360;-79
2024/02/04 02:11:25;;;;;;;0.10;0.10;;;;;;;18.53;94.56;100542.88;7393630;19;20291;-79
2024/02/04 02:13:58;;;;;;;1.75;0.22;;;;;;;18.52;94.97;100535.69;7391277;19;20105;-79
2024/02/04 02:16:30;;;;;;;0.10;0.10;;;;;;;18.47;94.58;100540.06;7389809;19;20022;-79
2024/02/04 02:19:12;;;;;;;0.20;0.20;;;;;;;18.43;94.77;100533.13;7392499;19;20010;-79
2024/02/04 02:21:56;;;;;;;0.10;0.10;;;;;;;18.52;94.36;100519.53;7395127;19;20010;-79
2024/02/04 02:24:22;;;;;;;0.20;0.20;;;;;;;18.48;94.77;100513.38;7393539;19;20018;-79
2024/02/04 02:26:50;;;;;;;0.10;0.10;;;;;;;18.46;94.63;100510.31;7393344;19;20328;-79
2024/02/04 02:29:16;;;;;;;0.20;0.10;;;;;;;18.52;94.61;100519.53;7392531;19;20014;-79
2024/02/04 02:31:43;;;;;;;4.15;0.28;;;;;;;18.57;93.71;100520.81;7389835;19;20022;-79
2024/02/04 02:34:10;;;;;;;1.20;0.32;;;;;;;18.58;93.97;100511.09;7393849;19;20053;-79
2024/02/04 02:36:47;;;;;;;0.35;0.30;;;;;;;18.54;93.84;100511.31;7392723;19;20014;-79
2024/02/04 02:39:29;;;;;;;0.10;0.10;;;;;;;18.63;94.12;100518.75;7392537;19;20010;-79
2024/02/04 02:41:59;;;;;;;0.10;0.10;;;;;;;18.99;91.52;100523.31;7394094;19;20014;-79
2024/02/04 02:44:26;;;;;;;0.15;0.15;;;;;;;19.06;90.53;100516.38;7395126;19;20026;-79
2024/02/04 02:46:57;;;;;;;0.30;0.10;;;;;;;18.97;91.07;100530.75;7393646;19;20025;-79
2024/02/04 02:49:24;;;;;;;0.30;0.30;;;;;;;18.99;90.49;100531.00;7394770;19;20089;-79
2024/02/04 02:51:50;;;;;;;0.20;0.20;;;;;;;19.05;89.75;100523.28;7392486;19;20529;-79
2024/02/04 02:54:16;;;;;;;0.30;0.30;;;;;;;18.91;90.17;100514.59;7390091;19;20015;-79
2024/02/04 02:56:42;;;;;;;0.30;0.30;;;;;;;18.94;90.21;100518.44;7393346;19;20361;-79
2024/02/04 02:59:09;;;;;;;1.85;0.30;;;;;;;18.97;89.64;100511.78;7391853;19;20033;-79
2024/02/04 03:01:39;;;;;;;0.73;0.40;;;;;;;19.00;89.46;100504.28;7389770;19;20395;-79
2024/02/04 03:04:05;;;;;;;0.15;0.15;;;;;;;18.98;89.11;100504.81;7391584;19;20017;-79
2024/02/04 03:06:31;;;;;;;0.30;0.22;;;;;;;18.98;88.96;100504.03;7392666;19;20017;-78
2024/02/04 03:08:58;;;;;;;0.20;0.10;;;;;;;18.93;89.19;100508.41;7397592;19;20366;-79
2024/02/04 03:11:24;;;;;;;0.10;0.00;;;;;;;18.90;89.11;100509.47;7390580;19;20021;-79
2024/02/04 03:13:50;;;;;;;0.10;0.10;;;;;;;18.88;89.39;100498.69;7390706;19;20014;-79
2024/02/04 03:16:16;;;;;;;1.23;0.75;;;;;;;18.87;89.18;100496.38;7390232;19;20018;-79
2024/02/04 03:18:46;;;;;;;6.43;0.32;;;;;;;18.84;89.57;100500.25;7391953;19;20029;-79
2024/02/04 03:21:17;;;;;;;1.65;0.40;;;;;;;18.89;89.07;100488.94;7391449;19;20038;-79
2024/02/04 03:23:44;;;;;;;0.10;0.08;;;;;;;18.90;88.79;100481.25;7391901;19;20033;-79
2024/02/04 03:26:11;;;;;;;0.20;0.20;;;;;;;18.91;88.13;100482.78;7392063;19;20074;-79
2024/02/04 03:28:38;;;;;;;0.20;0.20;;;;;;;18.92;88.14;100489.97;7393619;19;20038;-79
2024/02/04 03:31:04;;;;;;;0.68;0.40;;;;;;;18.86;88.53;100480.75;7389940;19;20471;-79
2024/02/04 03:33:31;;;;;;;0.28;0.28;;;;;;;18.82;88.64;100468.94;7390021;19;20082;-79
2024/02/04 03:35:57;;;;;;;0.22;0.13;;;;;;;18.82;88.78;100463.28;7391626;19;20018;-79
2024/02/04 03:38:23;;;;;;;0.20;0.17;;;;;;;18.84;88.90;100458.66;7389088;19;20018;-79
2024/02/04 03:40:50;;;;;;;0.20;0.10;;;;;;;18.83;89.00;100453.56;7391155;19;20011;-79
2024/02/04 03:43:17;;;;;;;0.20;0.20;;;;;;;18.83;88.71;100448.69;7392825;19;20500;-79
2024/02/04 03:45:43;;;;;;;0.10;0.03;;;;;;;18.83;88.64;100439.44;7391062;19;20089;-79
2024/02/04 03:48:09;;;;;;;0.13;0.05;;;;;;;19.34;84.83;100450.00;7391011;19;20007;-79
2024/02/04 03:50:36;;;;;;;0.10;0.10;;;;;;;21.30;71.47;100453.38;7389752;19;20014;-79
2024/02/04 03:53:02;;;;;;;2.28;0.52;;;;;;;18.73;86.71;100453.06;7390326;19;20037;-79
2024/02/04 03:55:28;;;;;;;4.75;0.30;;;;;;;32.56;42.95;100415.72;7387479;19;20018;-79
2024/02/04 03:57:57;;;;;;;0.40;0.40;;;;;;;35.31;34.50;100422.34;7389274;19;20042;-79
2024/02/04 04:00:23;;;;;;;0.35;0.35;;;;;;;35.87;32.97;100413.19;7390463;19;20023;-79
2024/02/04 04:02:49;;;;;;;0.10;0.10;;;;;;;36.67;31.18;100420.44;7390391;19;20092;-79
2024/02/04 04:05:15;;;;;;;0.10;0.10;;;;;;;36.82;29.75;100421.94;7391084;19;20011;-79
2024/02/04 04:07:41;;;;;;;0.10;0.10;;;;;;;37.56;29.15;100416.22;7390533;19;20430;-79
2024/02/04 04:10:07;;;;;;;0.10;0.10;;;;;;;37.81;28.13;100424.72;7390704;19;20019;-79
2024/02/04 04:12:33;;;;;;;11.52;0.38;;;;;;;37.93;27.87;100425.28;7388613;19;20022;-79
2024/02/04 04:15:00;;;;;;;0.20;0.20;;;;;;;37.97;27.34;100420.41;7391367;19;20014;-79
2024/02/04 04:17:26;;;;;;;0.10;0.10;;;;;;;37.99;27.02;100422.66;7390167;19;20018;-79
2024/02/04 04:19:52;;;;;;;0.10;0.10;;;;;;;38.03;26.83;100422.88;7390336;19;20384;-79
2024/02/04 04:22:18;;;;;;;1.15;0.65;;;;;;;38.08;26.35;100424.53;7395350;19;20014;-79
2024/02/04 04:24:44;;;;;;;0.40;0.40;;;;;;;38.17;25.93;100425.66;7392018;19;20063;-79
2024/02/04 04:27:10;;;;;;;0.13;0.13;;;;;;;38.09;25.80;100411.50;7391990;19;20426;-79
2024/02/04 04:29:36;;;;;;;0.57;0.40;;;;;;;38.17;25.93;100406.03;7390795;19;20310;-79
2024/02/04 04:32:03;;;;;;;0.38;0.38;;;;;;;37.91;26.09;100404.84;7389281;19;20015;-79
2024/02/04 04:34:29;;;;;;;0.10;0.00;;;;;;;37.68;25.97;100405.19;7390368;19;20014;-79
2024/02/04 04:36:55;;;;;;;0.28;0.28;;;;;;;37.64;25.64;100399.91;7390942;19;20338;-79
2024/02/04 04:39:21;;;;;;;0.25;0.20;;;;;;;37.79;25.60;100399.16;7388991;19;20018;-79
2024/02/04 04:41:47;;;;;;;0.20;0.20;;;;;;;37.73;25.84;100393.06;7390655;19;20017;-79
2024/02/04 04:44:13;;;;;;;0.20;0.10;;;;;;;37.93;25.25;100391.13;7389315;19;20015;-79
2024/02/04 04:46:40;;;;;;;0.85;0.50;;;;;;;37.95;25.09;100393.38;7389912;19;20015;-79
2024/02/04 04:49:06;;;;;;;0.60;0.20;;;;;;;37.87;25.34;100385.03;7390185;19;20090;-79
2024/02/04 04:51:33;;;;;;;0.45;0.40;;;;;;;37.74;25.03;100379.28;7390856;19;20625;-79
2024/02/04 04:53:59;;;;;;;0.57;0.10;;;;;;;38.23;24.91;100371.38;7386422;19;20022;-79
2024/02/04 04:56:25;;;;;;;0.43;0.30;;;;;;;38.41;24.56;100374.38;7393267;19;20011;-79
2024/02/04 04:58:51;;;;;;;1.95;0.25;;;;;;;38.46;24.60;100376.06;7388653;19;20026;-79
2024/02/04 05:01:17;;;;;;;0.15;0.13;;;;;;;38.30;24.69;100369.53;7385466;19;20630;-82
2024/02/04 05:03:44;;;;;;;0.85;0.22;;;;;;;38.13;24.68;100376.00;7390037;19;20400;-82
2024/02/04 05:06:10;;;;;;;0.55;0.50;;;;;;;36.88;25.79;100373.66;7395424;19;20018;-82
2024/02/04 05:08:36;;;;;;;0.70;0.20;;;;;;;33.89;28.34;100381.22;7397411;19;20022;-83
2024/02/04 05:11:02;;;;;;;0.20;0.17;;;;;;;35.03;27.53;100378.03;7393194;19;20048;-83
2024/02/04 05:13:28;;;;;;;0.73;0.20;;;;;;;37.16;25.46;100375.06;7393237;19;20025;-83
2024/02/04 05:15:54;;;;;;;1.00;0.10;;;;;;;27.60;33.80;100387.31;7391121;19;20484;-82
2024/02/04 05:18:20;;;;;;;0.22;0.20;;;;;;;20.00;52.04;100397.13;7397535;19;20014;-83
2024/02/04 05:20:48;;;;;;;0.10;0.10;;;;;;;18.25;73.67;100392.66;7395102;19;20018;-82
2024/02/04 05:23:14;;;;;;;0.10;0.10;;;;;;;17.97;77.30;100387.06;7396716;19;20027;-82
2024/02/04 05:25:40;;;;;;;0.10;0.10;;;;;;;17.29;86.52;100395.94;7397407;19;20025;-83
2024/02/04 05:28:06;;;;;;;0.30;0.30;;;;;;;17.18;89.11;100393.88;7400024;19;20345;-83
2024/02/04 05:30:32;;;;;;;5.60;0.52;;;;;;;16.86;93.14;100395.31;7394787;19;20459;-83
2024/02/04 05:32:58;;;;;;;0.57;0.20;;;;;;;16.59;95.50;100393.91;7393574;19;20029;-82
2024/02/04 05:35:24;;;;;;;0.15;0.05;;;;;;;16.47;97.86;100403.53;7393198;19;20014;-83
2024/02/04 05:37:51;;;;;;;0.80;0.08;;;;;;;16.40;99.44;100404.00;7397616;19;20023;-82
2024/02/04 05:40:18;;;;;;;6.22;0.47;;;;;;;16.57;99.40;100396.44;7393650;19;20014;-82
2024/02/04 05:42:45;;;;;;;0.20;0.20;;;;;;;16.54;100.00;100389.03;7397219;19;20014;-82
2024/02/04 05:45:12;;;;;;;0.15;0.10;;;;;;;16.61;100.00;100391.34;7396898;19;20073;-82
2024/02/04 05:47:38;;;;;;;0.88;0.32;;;;;;;16.69;100.00;100386.03;7397592;19;20025;-82
2024/02/04 05:50:05;;;;;;;1.08;0.17;;;;;;;26.91;62.95;100363.25;7394036;19;20018;-88
2024/02/04 05:52:31;;;;;;;0.10;0.05;;;;;;;25.13;47.15;100379.16;7399446;19;20021;-88
2024/02/04 05:54:57;;;;;;;0.28;0.28;;;;;;;33.09;39.26;100355.78;7394484;19;20078;-87
2024/02/04 05:57:23;;;;;;;2.03;0.32;;;;;;;24.09;50.67;100360.88;7393639;19;20531;-87
2024/02/04 05:59:52;;;;;;;0.95;0.77;;;;;;;21.07;72.60;100360.19;7395511;19;20015;-88
2024/02/04 06:02:18;;;;;;;1.10;0.20;;;;;;;21.86;82.75;100352.03;7397323;19;20018;-87
2024/02/04 06:04:45;;;;;;;0.22;0.10;;;;;;;21.44;66.63;100352.97;7397868;19;20093;-88
2024/02/04 06:07:11;;;;;;;1.27;0.73;;;;;;;30.69;46.66;100342.41;7395885;19;20031;-87
2024/02/04 06:09:38;;;;;;;0.10;0.10;;;;;;;19.52;73.27;100359.00;7394040;19;20471;-87
2024/02/04 06:12:06;;;;;;;0.17;0.13;;;;;;;25.66;52.64;100350.81;7393476;19;20043;-88
2024/02/04 06:14:34;;;;;;;0.65;0.30;;;;;;;24.42;51.42;100359.22;7393170;19;20022;-86
2024/02/04 06:17:00;;;;;;;0.30;0.10;;;;;;;25.73;43.61;100355.00;7391861;19;20015;-87
2024/02/04 06:19:26;;;;;;;0.75;0.40;;;;;;;21.59;58.44;100356.06;7392004;19;20019;-87
2024/02/04 06:21:52;;;;;;;0.10;0.10;;;;;;;34.74;35.02;100335.06;7398236;19;20024;-87
2024/02/04 06:24:20;;;;;;;0.10;0.10;;;;;;;21.53;57.21;100339.13;7396221;19;20503;-87
2024/02/04 06:26:46;;;;;;;0.43;0.10;;;;;;;34.93;34.19;100325.31;7394110;19;20088;-87
2024/02/04 06:29:12;;;;;;;2.45;0.43;;;;;;;37.32;29.99;100331.50;7395024;19;20476;-87
2024/02/04 06:31:38;;;;;;;0.55;0.25;;;;;;;33.41;32.49;100347.09;7393377;19;20287;-87
2024/02/04 06:34:04;;;;;;;0.10;0.10;;;;;;;31.80;32.35;100352.69;7393429;19;20014;-87
2024/02/04 06:36:30;;;;;;;1.10;0.40;;;;;;;18.67;75.77;100378.94;7397123;19;20018;-88
2024/02/04 06:38:56;;;;;;;1.25;0.63;;;;;;;16.55;98.79;100382.13;7392843;19;20006;-87
2024/02/04 06:41:23;;;;;;;0.20;0.20;;;;;;;15.72;100.00;100389.97;7391290;19;20015;-87
2024/02/04 06:43:49;;;;;;;0.10;0.10;;;;;;;15.42;100.00;100382.28;7394648;19;20447;-87
2024/02/04 06:46:24;;;;;;;0.20;0.20;;;;;;;15.17;100.00;100373.38;7397933;19;20007;-88
2024/02/04 06:48:50;;;;;;;0.10;0.10;;;;;;;15.00;100.00;100364.00;7394260;19;20025;-87
2024/02/04 06:51:16;;;;;;;0.40;0.30;;;;;;;14.90;100.00;100354.19;7392794;19;20015;-87
2024/02/04 06:53:42;;;;;;;0.20;0.20;;;;;;;14.94;100.00;100363.16;7392517;19;20036;-88
2024/02/04 06:56:08;;;;;;;0.52;0.28;;;;;;;31.09;48.40;100327.44;7393044;19;20022;-87
2024/02/04 06:58:37;;;;;;;1.90;0.43;;;;;;;35.21;36.23;100324.03;7394835;19;20018;-87
2024/02/04 07:01:04;;;;;;;0.10;0.10;;;;;;;20.69;68.33;100341.63;7391747;19;20018;-87
2024/02/04 07:03:31;;;;;;;1.48;0.50;;;;;;;16.98;100.00;100322.97;7395957;19;20023;-88
2024/02/04 07:06:00;;;;;;;0.75;0.30;;;;;;;16.06;100.00;100331.22;7393392;19;20532;-88
2024/02/04 07:08:27;;;;;;;3.05;0.40;;;;;;;15.66;100.00;100324.56;7393317;19;20014;-87
2024/02/04 07:10:53;;;;;;;1.05;0.80;;;;;;;15.40;100.00;100334.31;7397401;19;20018;-87
2024/02/04 07:13:20;;;;;;;0.32;0.32;;;;;;;15.18;100.00;100324.38;7391273;19;20006;-88
2024/02/04 07:15:46;;;;;;;0.50;0.50;;;;;;;15.05;100.00;100321.19;7393058;19;20032;-88
2024/02/04 07:18:12;;;;;;;0.35;0.35;;;;;;;14.96;100.00;100317.81;7391083;19;20377;-87
2024/02/04 07:20:38;;;;;;;0.20;0.20;;;;;;;14.89;100.00;100324.63;7393185;19;20029;-88
2024/02/04 07:23:06;;;;;;;0.10;0.10;;;;;;;14.88;100.00;100328.69;7393646;19;20227;-88
2024/02/04 07:25:34;;;;;;;0.10;0.10;;;;;;;14.95;100.00;100322.63;7394248;19;20017;-88
2024/02/04 07:28:00;;;;;;;0.13;0.10;;;;;;;14.95;100.00;100313.44;7393741;19;20010;-88
2024/02/04 07:30:26;;;;;;;0.35;0.35;;;;;;;14.96;100.00;100310.16;7389781;19;20090;-88
2024/02/04 07:32:53;;;;;;;0.30;0.30;;;;;;;14.95;100.00;100319.84;7393700;19;20471;-88
2024/02/04 07:35:19;;;;;;;0.63;0.30;;;;;;;14.96;100.00;100324.19;7389382;19;20010;-88
2024/02/04 07:37:45;;;;;;;0.20;0.20;;;;;;;14.95;100.00;100322.63;7395429;19;20356;-88
2024/02/04 07:40:12;;;;;;;1.38;0.10;;;;;;;14.97;100.00;100342.53;7389459;19;20030;-88
2024/02/04 07:42:38;;;;;;;0.15;0.15;;;;;;;33.51;45.63;100309.44;7386570;19;20046;-89
2024/02/04 07:45:08;;;;;;;0.10;0.00;;;;;;;35.30;36.12;100299.94;7395686;19;20041;-88
2024/02/04 07:47:37;;;;;;;0.10;0.10;;;;;;;18.94;97.26;100340.59;7392106;19;20018;-88
2024/02/04 07:50:04;;;;;;;0.10;0.10;;;;;;;32.51;48.30;100315.88;7390634;19;20090;-88
2024/02/04 07:52:30;;;;;;;0.40;0.20;;;;;;;36.91;35.04;100308.47;7395952;19;20114;-88
2024/02/04 07:54:56;;;;;;;0.63;0.20;;;;;;;34.25;38.08;100305.41;7389934;19;20110;-88
2024/02/04 07:57:23;;;;;;;0.15;0.10;;;;;;;30.77;44.45;100307.78;7393335;19;20376;-88
2024/02/04 07:59:49;;;;;;;0.50;0.17;;;;;;;36.56;33.99;100290.72;7391177;19;20022;-88
2024/02/04 08:02:15;;;;;;;2.45;0.35;;;;;;;31.28;42.16;100304.34;7391750;19;20563;-88
2024/02/04 08:04:41;;;;;;;4.50;1.55;;;;;;;26.60;43.74;100315.31;7392422;19;20014;-88
2024/02/04 08:07:08;;;;;;;13.10;1.40;;;;;;;18.91;93.18;100324.69;7393257;19;20024;-87
2024/02/04 08:09:35;;;;;;;9.32;1.77;;;;;;;16.89;100.00;100331.63;7392713;19;20025;-88
2024/02/04 08:12:01;;;;;;;12.20;2.35;;;;;;;16.21;100.00;100334.63;7393469;19;20029;-88
2024/02/04 08:14:27;;;;;;;9.00;2.38;;;;;;;15.85;100.00;100328.53;7388830;19;20045;-88
2024/02/04 08:16:53;;;;;;;6.47;1.50;;;;;;;22.38;81.97;100309.50;7388830;19;20409;-88
2024/02/04 08:19:19;;;;;;;2.28;1.05;;;;;;;35.38;38.74;100288.03;7392714;19;20086;-88
2024/02/04 08:21:45;;;;;;;4.80;1.13;;;;;;;37.02;33.43;100290.13;7395582;19;20018;-88
2024/02/04 08:24:11;;;;;;;0.80;0.80;;;;;;;37.72;32.29;100294.88;7391082;19;20135;-87
2024/02/04 08:26:38;;;;;;;1.15;0.93;;;;;;;37.69;31.50;100290.34;7392533;19;20014;-87
2024/02/04 08:29:04;;;;;;;0.63;0.52;;;;;;;38.56;30.23;100292.81;7392040;19;20014;-88
2024/02/04 08:31:32;;;;;;;0.38;0.38;;;;;;;38.77;29.24;100300.25;7390219;19;20022;-90
2024/02/04 08:33:58;;;;;;;1.33;0.75;;;;;;;34.13;32.93;100304.66;7389154;19;20014;-89
2024/02/04 08:36:24;;;;;;;0.95;0.35;;;;;;;38.74;28.77;100295.75;7388501;19;20014;-90
2024/02/04 08:38:50;;;;;;;0.10;0.08;;;;;;;36.17;29.52;100290.88;7389065;19;20014;-89
2024/02/04 08:41:17;;;;;;;0.30;0.17;;;;;;;36.56;31.47;100299.41;7390451;19;20519;-89
2024/02/04 08:43:43;;;;;;;0.20;0.15;;;;;;;38.98;28.55;100296.00;7393730;19;20511;-90
2024/02/04 08:46:09;;;;;;;1.38;0.75;;;;;;;37.61;29.37;100290.75;7391605;19;20025;-90
2024/02/04 08:48:36;;;;;;;0.90;0.63;;;;;;;39.01;27.97;100297.56;7391149;19;20433;-90
2024/02/04 08:51:03;;;;;;;0.10;0.00;;;;;;;38.95;27.63;100288.56;7389156;19;20014;-89
2024/02/04 08:53:29;;;;;;;0.10;0.10;;;;;;;22.52;53.25;100325.22;7394781;19;20015;-89
2024/02/04 08:55:55;;;;;;;0.40;0.40;;;;;;;18.55;96.11;100331.56;7393053;19;20006;-89
2024/02/04 08:58:22;;;;;;;2.13;0.40;;;;;;;17.83;100.00;100329.66;7391404;19;20026;-89
2024/02/04 09:00:48;;;;;;;0.10;0.10;;;;;;;16.81;100.00;100322.13;7397211;19;20380;-89
2024/02/04 09:03:17;;;;;;;1.08;0.50;;;;;;;29.67;60.66;100297.13;7393366;19;20010;-89
2024/02/04 09:05:44;;;;;;;1.48;0.20;;;;;;;36.59;35.65;100283.63;7393467;19;20015;-89
2024/02/04 09:08:10;;;;;;;1.23;0.32;;;;;;;38.83;30.67;100285.19;7388182;19;20015;-90
2024/02/04 09:10:37;;;;;;;0.10;0.10;;;;;;;39.51;29.48;100287.91;7390333;19;20010;-90
2024/02/04 09:13:03;;;;;;;0.10;0.10;;;;;;;39.46;28.48;100268.78;7391059;19;20019;-90
2024/02/04 09:15:29;;;;;;;1.48;0.52;;;;;;;40.43;27.61;100272.31;7389233;19;20022;-90
2024/02/04 09:17:55;;;;;;;2.22;0.52;;;;;;;40.61;27.25;100270.00;7389974;19;20022;-89
2024/02/04 09:20:22;;;;;;;5.00;1.20;;;;;;;40.55;26.72;100266.88;7388944;19;20014;-88
2024/02/04 09:22:48;;;;;;;0.90;0.17;;;;;;;40.24;26.70;100268.00;7390797;19;20019;-89
2024/02/04 09:25:14;;;;;;;2.05;0.40;;;;;;;40.29;26.25;100260.13;7391888;19;20006;-89
2024/02/04 09:27:40;;;;;;;0.20;0.10;;;;;;;40.46;25.97;100265.13;7391328;19;20019;-90
2024/02/04 09:30:07;;;;;;;0.32;0.32;;;;;;;40.47;26.03;100260.78;7389209;19;20360;-89
2024/02/04 09:32:34;;;;;;;0.20;0.10;;;;;;;38.19;27.42;100265.69;7388455;19;20431;-88
2024/02/04 09:35:00;;;;;;;0.13;0.13;;;;;;;39.45;26.17;100267.25;7390123;19;20022;-90
2024/02/04 09:37:26;;;;;;;0.68;0.30;;;;;;;39.71;26.40;100259.53;7391446;19;20031;-89
2024/02/04 09:39:52;;;;;;;0.50;0.10;;;;;;;39.88;26.08;100261.59;7387988;19;20096;-89
2024/02/04 09:42:23;;;;;;;2.38;0.43;;;;;;;40.03;25.81;100260.72;7389023;19;20011;-89
2024/02/04 09:44:49;;;;;;;0.32;0.10;;;;;;;40.04;25.47;100259.31;7389888;19;20025;-89
2024/02/04 09:47:16;;;;;;;0.73;0.28;;;;;;;39.89;25.39;100263.09;7390919;19;20022;-89
2024/02/04 09:49:43;;;;;;;2.75;0.68;;;;;;;40.38;25.06;100267.72;7389309;19;20027;-89
2024/02/04 09:52:09;;;;;;;0.10;0.10;;;;;;;40.43;24.61;100254.78;7390873;19;20043;-89
2024/02/04 09:54:45;;;;;;;0.10;0.08;;;;;;;40.46;24.32;100245.41;7393363;19;20010;-89
2024/02/04 09:57:13;;;;;;;0.22;0.13;;;;;;;40.58;24.45;100250.91;7394241;19;20507;-89
2024/02/04 09:59:39;;;;;;;0.45;0.10;;;;;;;40.56;24.50;100250.84;7395561;19;20034;-89
2024/02/04 10:02:07;;;;;;;0.55;0.47;;;;;;;40.60;24.31;100239.31;7396503;19;20086;-89
2024/02/04 10:04:33;;;;;;;1.55;0.68;;;;;;;40.64;24.12;100251.13;7396010;19;20018;-89
2024/02/04 10:07:00;;;;;;;0.43;0.25;;;;;;;40.45;24.21;100251.94;7396393;19;20038;-89
2024/02/04 10:09:26;;;;;;;1.65;0.40;;;;;;;40.27;23.76;100243.28;7396159;19;20022;-89
2024/02/04 10:11:52;;;;;;;0.85;0.20;;;;;;;39.97;24.22;100245.88;7396671;19;20029;-89
2024/02/04 10:14:20;;;;;;;0.22;0.22;;;;;;;38.78;25.16;100243.50;7397837;19;20344;-89
2024/02/04 10:16:46;;;;;;;0.10;0.10;;;;;;;39.81;24.30;100241.66;7395410;19;20018;-89
2024/02/04 10:19:12;;;;;;;0.50;0.35;;;;;;;40.20;23.79;100226.25;7396562;19;20011;-89
2024/02/04 10:21:38;;;;;;;0.13;0.10;;;;;;;39.99;24.17;100237.22;7395997;19;20022;-88
2024/02/04 10:24:06;;;;;;;0.10;0.00;;;;;;;40.16;23.96;100231.94;7396106;19;20022;-89
2024/02/04 10:26:35;;;;;;;0.85;0.40;;;;;;;39.88;23.96;100231.66;7395494;19;20491;-88
2024/02/04 10:29:02;;;;;;;0.20;0.10;;;;;;;40.53;23.82;100228.84;7394574;19;20014;-89
2024/02/04 10:31:28;;;;;;;0.13;0.13;;;;;;;40.63;23.21;100229.91;7393348;19;20349;-87
2024/02/04 10:33:56;;;;;;;10.18;0.32;;;;;;;40.96;23.30;100210.53;7393016;19;20016;-90
2024/02/04 10:36:22;;;;;;;1.48;0.55;;;;;;;37.96;25.57;100223.28;7392930;19;20018;-88
2024/02/04 10:38:48;;;;;;;0.10;0.10;;;;;;;39.87;24.35;100213.41;7391737;19;20021;-88
2024/02/04 10:41:15;;;;;;;0.40;0.22;;;;;;;40.06;24.03;100212.69;7393886;19;20015;-89
2024/02/04 10:43:43;;;;;;;0.22;0.20;;;;;;;40.06;24.29;100206.84;7394474;19;20109;-89
2024/02/04 10:46:15;;;;;;;0.10;0.10;;;;;;;39.98;23.98;100209.47;7394086;19;20018;-88
2024/02/04 10:48:44;;;;;;;4.20;0.35;;;;;;;40.00;24.31;100203.69;7396840;19;20010;-88
2024/02/04 10:51:15;;;;;;;0.10;0.10;;;;;;;41.06;23.47;100204.97;7393718;19;20023;-88
2024/02/04 10:53:42;;;;;;;;;;;;;;;41.17;23.47;100201.69;7393363;19;20078;-89
2024/02/04 10:56:18;;;;;;;1.25;0.57;;;;;;;38.11;25.53;100213.72;7391979;19;20328;-88
2024/02/04 10:58:45;;;;;;;0.73;0.32;;;;;;;40.77;23.69;100209.94;7391773;19;20015;-89
2024/02/04 11:01:12;;;;;;;0.10;0.00;;;;;;;41.44;23.91;100203.19;7393413;19;20019;-88
2024/02/04 11:03:40;;;;;;;0.10;0.00;;;;;;;41.55;23.97;100214.50;7392260;19;20018;-89
2024/02/04 11:06:10;;;;;;;0.43;0.30;;;;;;;41.49;23.65;100219.44;7395487;19;20368;-89
2024/02/04 11:08:38;;;;;;;0.22;0.17;;;;;;;41.47;23.47;100216.47;7392977;19;20014;-88
2024/02/04 11:11:04;;;;;;;2.05;0.10;;;;;;;41.58;23.55;100229.94;7391169;19;20022;-88
2024/02/04 11:13:32;;;;;;;0.30;0.10;;;;;;;41.54;22.93;100221.06;7390660;19;20074;-89
2024/02/04 11:16:04;;;;;;;0.10;0.10;;;;;;;41.68;23.11;100232.41;7392738;19;20026;-89
2024/02/04 11:18:52;;;;;;;4.45;0.50;;;;;;;41.46;23.01;100223.72;7393025;19;20338;-89
2024/02/04 11:21:53;;;;;;;7.80;1.08;;;;;;;41.35;23.03;100216.09;7394278;19;20503;-88
2024/02/04 11:24:27;;;;;;;2.65;0.55;;;;;;;41.65;23.26;100219.16;7394618;19;20014;-92